Time;durP1;ratioP1;P1;durP2;ratioP2;P2;SDS_P1;SDS_P2;PMS_P1;PMS_P2;Temp;Humidity;BMP_temperature;BMP_pressure;BME280_temperature;BME280_humidity;BME280_pressure;Samples;Min_cycle;Max_cycle;Signal;HPM_P1;HPM_P2
2021/09/10 00:00:52;;;;;;;6.07;3.97;;;;;;;20.49;74.94;100930.28;5018604;28;20103;-81
2021/09/10 00:03:18;;;;;;;6.78;3.63;;;;;;;20.48;75.13;100933.94;5004661;28;20029;-81
2021/09/10 00:05:44;;;;;;;7.90;4.22;;;;;;;20.47;75.02;100940.22;5017950;28;20041;-82
2021/09/10 00:08:09;;;;;;;5.82;3.67;;;;;;;20.48;75.12;100938.41;5026745;28;20080;-81
2021/09/10 00:10:34;;;;;;;6.20;3.67;;;;;;;20.46;75.17;100943.91;5012060;28;20029;-81
2021/09/10 00:13:01;;;;;;;5.82;3.65;;;;;;;20.42;75.23;100938.25;5021249;28;20301;-80
2021/09/10 00:15:27;;;;;;;7.65;3.83;;;;;;;20.38;75.78;100934.44;5036932;28;20025;-82
2021/09/10 00:17:53;;;;;;;8.75;4.10;;;;;;;20.37;75.91;100934.66;5023705;28;20044;-80
2021/09/10 00:20:18;;;;;;;10.10;3.97;;;;;;;20.34;75.79;100937.72;5020260;28;20410;-80
2021/09/10 00:22:44;;;;;;;5.13;3.65;;;;;;;20.30;76.15;100932.06;5001434;28;20032;-81
2021/09/10 00:25:11;;;;;;;5.63;3.97;;;;;;;20.28;76.31;100934.13;5012227;28;20061;-80
2021/09/10 00:27:37;;;;;;;4.35;3.47;;;;;;;20.26;76.34;100936.19;5014636;28;20064;-80
2021/09/10 00:30:06;;;;;;;8.93;4.03;;;;;;;20.21;76.30;100934.19;5027618;28;20095;-81
2021/09/10 00:32:32;;;;;;;8.68;4.10;;;;;;;20.19;76.33;100930.16;5001439;28;20068;-78
2021/09/10 00:34:57;;;;;;;7.38;4.35;;;;;;;20.15;76.61;100931.63;5022872;28;20072;-80
2021/09/10 00:37:23;;;;;;;5.07;3.88;;;;;;;20.10;76.56;100931.44;5017553;28;20042;-81
2021/09/10 00:39:48;;;;;;;5.22;3.75;;;;;;;20.08;76.56;100926.44;4997853;28;20026;-82
2021/09/10 00:42:15;;;;;;;7.75;4.00;;;;;;;20.06;76.54;100931.09;5025016;28;20484;-78
2021/09/10 00:44:40;;;;;;;4.47;3.60;;;;;;;20.04;76.45;100938.38;5001056;28;20044;-81
2021/09/10 00:47:06;;;;;;;6.22;4.10;;;;;;;20.01;76.81;100936.19;5004649;28;20513;-80
2021/09/10 00:49:34;;;;;;;8.95;3.92;;;;;;;20.00;76.31;100931.94;5005931;28;20149;-82
2021/09/10 00:51:59;;;;;;;7.25;3.53;;;;;;;19.98;76.71;100931.34;5001012;28;20120;-80
2021/09/10 00:54:25;;;;;;;6.95;3.60;;;;;;;19.93;76.86;100929.38;5027561;28;20426;-81
2021/09/10 00:56:51;;;;;;;6.70;4.00;;;;;;;19.90;76.98;100942.16;5016878;28;20144;-79
2021/09/10 00:59:17;;;;;;;6.55;3.78;;;;;;;19.89;77.00;100936.09;5001074;28;20053;-82
2021/09/10 01:01:44;;;;;;;6.40;4.47;;;;;;;19.87;76.97;100935.47;5034712;28;20329;-79
2021/09/10 01:04:10;;;;;;;9.05;4.40;;;;;;;19.84;76.98;100928.81;5017480;28;20498;-80
2021/09/10 01:06:36;;;;;;;6.78;3.55;;;;;;;19.83;76.99;100935.13;5011473;28;20048;-80
2021/09/10 01:09:02;;;;;;;8.07;4.03;;;;;;;19.82;76.98;100927.44;5024769;28;20048;-81
2021/09/10 01:11:28;;;;;;;5.30;3.67;;;;;;;19.79;77.00;100931.28;5041504;28;20118;-80
2021/09/10 01:13:55;;;;;;;6.80;4.03;;;;;;;19.77;77.12;100937.78;5033798;28;20487;-79
2021/09/10 01:16:21;;;;;;;5.80;3.70;;;;;;;19.75;77.57;100929.31;5009853;28;20509;-79
2021/09/10 01:18:47;;;;;;;5.68;4.28;;;;;;;19.71;77.46;100930.72;5005830;28;20474;-80
2021/09/10 01:21:12;;;;;;;9.85;4.82;;;;;;;19.71;77.33;100936.00;5019320;28;20033;-81
2021/09/10 01:23:38;;;;;;;7.18;4.35;;;;;;;19.60;77.96;100934.84;5017364;28;20478;-80
2021/09/10 01:26:03;;;;;;;8.70;5.05;;;;;;;19.56;77.72;100937.09;5024868;28;20042;-81
2021/09/10 01:28:29;;;;;;;9.93;4.00;;;;;;;19.58;78.20;100929.78;5026115;28;20541;-79
2021/09/10 01:30:54;;;;;;;11.70;4.90;;;;;;;19.53;78.43;100932.25;5023530;28;20087;-82
2021/09/10 01:33:20;;;;;;;7.35;4.03;;;;;;;19.49;78.67;100930.25;5020853;28;20037;-81
2021/09/10 01:35:46;;;;;;;7.15;4.00;;;;;;;19.49;78.54;100927.63;5021081;28;20482;-81
2021/09/10 01:38:11;;;;;;;6.45;4.93;;;;;;;19.51;78.42;100926.38;5017412;28;20076;-82
2021/09/10 01:40:38;;;;;;;8.27;4.43;;;;;;;19.49;78.75;100925.00;5017713;28;20033;-82
2021/09/10 01:43:05;;;;;;;11.25;5.70;;;;;;;19.50;78.73;100930.06;5002296;28;20048;-81
2021/09/10 01:45:31;;;;;;;8.57;4.60;;;;;;;19.51;78.13;100929.03;5021959;28;20072;-80
2021/09/10 01:47:57;;;;;;;5.90;3.80;;;;;;;19.43;78.40;100924.03;5009090;28;20031;-81
2021/09/10 01:50:24;;;;;;;5.15;3.60;;;;;;;19.40;78.75;100930.53;5034631;28;20556;-81
2021/09/10 01:52:50;;;;;;;11.55;4.53;;;;;;;19.40;78.86;100927.06;5003652;28;20132;-81
2021/09/10 01:55:15;;;;;;;7.10;4.30;;;;;;;19.37;78.75;100922.25;5021392;28;20471;-82
2021/09/10 01:57:43;;;;;;;10.52;4.70;;;;;;;19.33;79.00;100919.22;5019804;28;20033;-82
2021/09/10 02:00:09;;;;;;;6.15;3.80;;;;;;;19.32;78.67;100922.06;5021113;28;20060;-82
2021/09/10 02:02:35;;;;;;;11.27;4.25;;;;;;;19.31;78.95;100925.69;5009206;28;20487;-82
2021/09/10 02:05:00;;;;;;;8.38;4.10;;;;;;;19.30;78.81;100921.47;5014655;28;20037;-82
2021/09/10 02:07:26;;;;;;;7.20;3.53;;;;;;;19.26;78.79;100919.25;5036799;28;20111;-81
2021/09/10 02:09:51;;;;;;;8.57;4.38;;;;;;;19.23;78.80;100919.69;5033168;28;20034;-82
2021/09/10 02:12:17;;;;;;;7.65;4.35;;;;;;;19.22;78.81;100917.28;5010821;28;20042;-81
2021/09/10 02:14:42;;;;;;;9.10;4.50;;;;;;;19.15;79.29;100911.22;5008728;28;20398;-81
2021/09/10 02:17:08;;;;;;;9.68;4.35;;;;;;;19.12;79.13;100922.97;5014064;28;20039;-80
2021/09/10 02:19:33;;;;;;;6.35;3.63;;;;;;;19.12;79.12;100928.25;5006181;28;20052;-82
2021/09/10 02:21:59;;;;;;;8.93;4.20;;;;;;;19.10;79.28;100922.38;5018096;28;20021;-81
2021/09/10 02:24:25;;;;;;;8.35;4.22;;;;;;;19.08;79.36;100926.22;4997009;28;20033;-82
2021/09/10 02:26:51;;;;;;;9.10;4.05;;;;;;;19.05;79.18;100917.75;5030909;28;20136;-82
2021/09/10 02:29:17;;;;;;;5.90;3.97;;;;;;;19.04;79.43;100923.22;5003722;28;20606;-81
2021/09/10 02:31:42;;;;;;;8.82;5.10;;;;;;;19.01;79.52;100919.19;5003515;28;20030;-81
2021/09/10 02:34:09;;;;;;;7.65;4.00;;;;;;;19.01;79.53;100911.31;5017394;28;20076;-82
2021/09/10 02:36:34;;;;;;;7.40;4.43;;;;;;;18.97;79.70;100925.06;5018377;28;20045;-81
2021/09/10 02:39:03;;;;;;;7.43;4.28;;;;;;;18.94;79.82;100925.47;5007981;28;20033;-81
2021/09/10 02:41:29;;;;;;;6.47;4.05;;;;;;;18.90;79.77;100924.28;5026198;28;20041;-79
2021/09/10 02:43:54;;;;;;;8.65;4.85;;;;;;;18.90;79.87;100921.66;5015888;28;20044;-82
2021/09/10 02:46:20;;;;;;;10.95;4.60;;;;;;;18.88;79.88;100923.69;5037965;28;20034;-81
2021/09/10 02:48:45;;;;;;;10.20;4.30;;;;;;;18.85;80.11;100911.75;4999695;28;20411;-82
2021/09/10 02:51:11;;;;;;;13.65;5.28;;;;;;;18.81;80.13;100914.00;5004677;28;20471;-80
2021/09/10 02:53:36;;;;;;;8.70;5.07;;;;;;;18.78;80.41;100917.03;5012541;28;20025;-81
2021/09/10 02:56:02;;;;;;;8.73;5.03;;;;;;;18.78;80.34;100932.78;5012009;28;20026;-81
2021/09/10 02:58:28;;;;;;;10.90;5.00;;;;;;;18.76;80.37;100919.06;4997124;28;20037;-81
2021/09/10 03:00:59;;;;;;;9.45;5.32;;;;;;;18.75;80.58;100921.88;5012388;28;20029;-82
2021/09/10 03:03:27;;;;;;;7.10;4.43;;;;;;;18.74;80.74;100925.50;4996042;28;20033;-81
2021/09/10 03:05:52;;;;;;;7.80;4.45;;;;;;;18.73;80.69;100926.53;4996468;28;20032;-82
2021/09/10 03:08:18;;;;;;;9.05;4.60;;;;;;;18.71;80.79;100925.94;4996921;28;20042;-81
2021/09/10 03:10:43;;;;;;;9.82;4.53;;;;;;;18.68;80.70;100924.50;5004631;28;20044;-82
2021/09/10 03:13:09;;;;;;;9.43;5.07;;;;;;;18.66;80.53;100922.09;5019936;28;20030;-82
2021/09/10 03:15:34;;;;;;;7.97;5.18;;;;;;;18.62;80.78;100918.28;4996119;28;20483;-80
2021/09/10 03:18:00;;;;;;;6.60;4.85;;;;;;;18.60;80.88;100911.63;5008584;28;20037;-82
2021/09/10 03:20:25;;;;;;;8.05;4.97;;;;;;;18.59;81.12;100917.88;4996225;28;20026;-80
2021/09/10 03:22:51;;;;;;;12.18;5.03;;;;;;;18.58;80.90;100917.06;5015895;28;20029;-80
2021/09/10 03:25:16;;;;;;;6.28;4.82;;;;;;;18.55;81.39;100917.47;5010914;28;20239;-80
2021/09/10 03:27:42;;;;;;;7.03;5.18;;;;;;;18.55;81.41;100908.78;5008940;28;20030;-79
2021/09/10 03:30:08;;;;;;;8.90;4.82;;;;;;;18.53;81.64;100914.25;5021846;28;20057;-80
2021/09/10 03:32:34;;;;;;;8.05;5.78;;;;;;;18.52;81.57;100907.41;5018492;28;20037;-82
2021/09/10 03:34:59;;;;;;;12.05;5.82;;;;;;;18.51;81.92;100912.84;5028674;28;20083;-79
2021/09/10 03:37:24;;;;;;;9.73;5.75;;;;;;;18.55;82.42;100912.22;5010117;28;20021;-82
2021/09/10 03:39:50;;;;;;;8.00;4.88;;;;;;;18.48;82.48;100907.00;5005536;28;20028;-81
2021/09/10 03:42:15;;;;;;;8.95;5.38;;;;;;;18.47;82.58;100912.44;5004594;28;20017;-81
2021/09/10 03:44:41;;;;;;;9.05;5.88;;;;;;;18.47;82.50;100908.00;5021008;28;20041;-81
2021/09/10 03:47:06;;;;;;;10.82;5.93;;;;;;;18.48;82.49;100907.00;5017816;28;20091;-82
2021/09/10 03:49:33;;;;;;;7.82;5.28;;;;;;;18.51;82.51;100902.34;5006654;28;20545;-81
2021/09/10 03:51:59;;;;;;;12.05;6.90;;;;;;;18.51;82.57;100907.59;5004220;28;20029;-81
2021/09/10 03:54:24;;;;;;;8.48;5.25;;;;;;;18.52;82.59;100898.72;5003251;28;20044;-82
2021/09/10 03:56:50;;;;;;;6.45;5.07;;;;;;;18.58;82.63;100892.66;5027985;28;20151;-79
2021/09/10 03:59:15;;;;;;;8.55;5.53;;;;;;;18.54;82.73;100894.88;5006065;28;20026;-81
2021/09/10 04:01:42;;;;;;;9.50;5.70;;;;;;;18.53;82.88;100901.13;5003223;28;20489;-81
2021/09/10 04:04:08;;;;;;;7.07;4.78;;;;;;;18.51;82.92;100902.34;5010063;28;20087;-80
2021/09/10 04:06:34;;;;;;;7.75;4.97;;;;;;;18.52;82.81;100899.53;5016614;28;20091;-81
2021/09/10 04:08:59;;;;;;;9.85;5.00;;;;;;;18.51;82.64;100904.97;5020821;28;20065;-80
2021/09/10 04:11:26;;;;;;;8.98;4.68;;;;;;;18.51;82.92;100902.34;5016355;28;20553;-81
2021/09/10 04:13:53;;;;;;;6.15;4.20;;;;;;;18.53;82.79;100902.94;5016233;28;20029;-81
2021/09/10 04:16:18;;;;;;;8.30;4.68;;;;;;;18.52;82.68;100906.59;4997113;28;20119;-81
2021/09/10 04:18:43;;;;;;;12.00;5.88;;;;;;;18.51;82.42;100911.03;5003334;28;20084;-81
2021/09/10 04:21:09;;;;;;;7.97;4.32;;;;;;;18.51;82.21;100904.97;5002666;28;20406;-81
2021/09/10 04:23:34;;;;;;;10.25;5.38;;;;;;;18.51;82.21;100910.22;5020177;28;20064;-81
2021/09/10 04:26:00;;;;;;;7.38;4.28;;;;;;;18.48;82.04;100911.47;5016584;28;20029;-80
2021/09/10 04:28:25;;;;;;;8.63;4.30;;;;;;;18.48;81.97;100912.25;5028621;28;20022;-81
2021/09/10 04:30:51;;;;;;;4.95;3.67;;;;;;;18.44;81.72;100907.59;5018469;28;20045;-80
2021/09/10 04:33:16;;;;;;;8.45;4.30;;;;;;;18.41;82.04;100910.66;5003124;28;20034;-81
2021/09/10 04:35:42;;;;;;;19.20;6.13;;;;;;;18.41;81.93;100913.28;4998226;28;20506;-80
2021/09/10 04:38:07;;;;;;;6.82;4.18;;;;;;;18.39;81.69;100920.56;5005401;28;20030;-82
2021/09/10 04:40:33;;;;;;;7.93;3.70;;;;;;;18.37;81.59;100912.09;5026020;28;20067;-81
2021/09/10 04:42:58;;;;;;;5.40;4.45;;;;;;;18.34;81.62;100920.34;5016067;28;20605;-81
2021/09/10 04:45:23;;;;;;;9.82;4.22;;;;;;;18.31;81.48;100916.34;5012369;28;20045;-82
2021/09/10 04:47:49;;;;;;;6.63;4.35;;;;;;;18.28;81.61;100921.97;5011745;28;20080;-81
2021/09/10 04:50:15;;;;;;;6.68;4.30;;;;;;;18.27;81.73;100928.22;5007035;28;20036;-81
2021/09/10 04:52:41;;;;;;;6.40;4.60;;;;;;;18.21;81.75;100921.97;5019821;28;20332;-81
2021/09/10 04:55:08;;;;;;;5.95;4.60;;;;;;;18.18;81.88;100930.28;5010444;28;20033;-81
2021/09/10 04:57:35;;;;;;;10.40;4.47;;;;;;;18.15;81.79;100928.03;5014385;28;20034;-80
2021/09/10 05:00:00;;;;;;;7.05;4.78;;;;;;;18.12;82.00;100931.09;4995629;28;20029;-82
2021/09/10 05:02:26;;;;;;;5.60;4.50;;;;;;;18.05;82.35;100922.41;5015107;28;20033;-80
2021/09/10 05:04:51;;;;;;;8.80;4.70;;;;;;;18.00;82.59;100928.25;4994354;28;20034;-82
2021/09/10 05:07:17;;;;;;;5.20;4.45;;;;;;;17.99;82.73;100931.06;5012871;28;20030;-80
2021/09/10 05:09:43;;;;;;;9.73;5.80;;;;;;;17.99;82.82;100929.25;5013232;28;20242;-81
2021/09/10 05:12:08;;;;;;;9.70;4.65;;;;;;;17.99;82.32;100926.66;4997198;28;20032;-80
2021/09/10 05:14:34;;;;;;;13.38;4.78;;;;;;;17.99;82.42;100924.03;5017231;28;20047;-81
2021/09/10 05:16:59;;;;;;;7.70;4.75;;;;;;;17.99;82.32;100926.66;5010984;28;20017;-81
2021/09/10 05:19:25;;;;;;;7.75;4.25;;;;;;;18.00;82.10;100930.88;5010922;28;20045;-81
2021/09/10 05:21:50;;;;;;;8.95;4.60;;;;;;;18.01;81.92;100929.06;5013124;28;20029;-81
2021/09/10 05:24:16;;;;;;;7.25;4.93;;;;;;;18.00;81.98;100933.50;4999379;28;20086;-81
2021/09/10 05:26:42;;;;;;;7.68;5.32;;;;;;;17.98;82.07;100935.50;5019971;28;20045;-80
2021/09/10 05:29:07;;;;;;;7.47;4.70;;;;;;;17.96;82.33;100934.09;4997695;28;20044;-79
2021/09/10 05:31:33;;;;;;;8.48;4.68;;;;;;;17.97;82.37;100935.69;5018946;28;20034;-80
2021/09/10 05:33:58;;;;;;;9.20;5.13;;;;;;;17.97;82.59;100938.31;5012769;28;20041;-80
2021/09/10 05:36:24;;;;;;;8.93;5.18;;;;;;;17.98;82.43;100943.38;5004791;28;20143;-80
2021/09/10 05:38:50;;;;;;;6.40;4.32;;;;;;;18.01;82.61;100943.00;5023843;28;20037;-80
2021/09/10 05:41:15;;;;;;;10.30;4.90;;;;;;;18.04;82.32;100941.75;5034071;28;20033;-80
2021/09/10 05:43:41;;;;;;;8.02;4.95;;;;;;;18.06;82.64;100947.63;5005878;28;20033;-81
2021/09/10 05:46:07;;;;;;;7.03;4.53;;;;;;;18.08;82.91;100956.91;5010756;28;20061;-81
2021/09/10 05:48:33;;;;;;;11.80;5.05;;;;;;;18.13;82.94;100956.31;5020460;28;20034;-81
2021/09/10 05:50:58;;;;;;;8.70;4.80;;;;;;;18.21;82.93;100965.78;5013333;28;20038;-81
2021/09/10 05:53:23;;;;;;;7.63;4.60;;;;;;;18.30;83.28;100959.31;5015397;28;20474;-81
2021/09/10 05:55:49;;;;;;;6.35;4.70;;;;;;;18.38;83.32;100956.47;5005883;28;20397;-80
2021/09/10 05:58:14;;;;;;;11.43;6.00;;;;;;;18.49;83.75;100960.31;5020796;28;20033;-81
2021/09/10 06:00:40;;;;;;;9.32;5.88;;;;;;;18.61;83.95;100961.31;5023117;28;20040;-80
2021/09/10 06:03:05;;;;;;;12.73;5.88;;;;;;;18.71;84.03;100963.50;5014607;28;20041;-81
2021/09/10 06:05:31;;;;;;;11.18;6.55;;;;;;;18.81;83.79;100963.91;5007964;28;20040;-81
2021/09/10 06:07:57;;;;;;;11.20;6.90;;;;;;;18.94;83.97;100967.53;5016515;28;20124;-81
2021/09/10 06:10:22;;;;;;;12.25;6.32;;;;;;;19.03;83.97;100971.53;5031860;28;20502;-81
2021/09/10 06:12:48;;;;;;;10.38;6.57;;;;;;;19.07;83.90;100970.09;5007726;28;20084;-80
2021/09/10 06:15:14;;;;;;;12.15;6.15;;;;;;;19.17;83.76;100970.44;5010298;28;20037;-81
2021/09/10 06:17:40;;;;;;;11.05;5.95;;;;;;;19.24;83.75;100971.22;5000565;28;20056;-81
2021/09/10 06:20:06;;;;;;;15.40;6.30;;;;;;;19.42;83.21;100973.19;5007350;28;20044;-79
2021/09/10 06:22:32;;;;;;;8.32;4.40;;;;;;;19.48;82.83;100981.22;5023763;28;20037;-81
2021/09/10 06:24:58;;;;;;;15.82;5.07;;;;;;;19.67;81.49;100979.53;5013722;28;20552;-80
2021/09/10 06:27:23;;;;;;;8.32;4.10;;;;;;;19.76;80.76;100986.16;4999776;28;20545;-82
2021/09/10 06:29:49;;;;;;;11.73;4.38;;;;;;;19.81;80.58;100978.44;5019135;28;20033;-82
2021/09/10 06:32:14;;;;;;;8.80;3.55;;;;;;;19.96;79.63;100981.56;5006597;28;20056;-81
2021/09/10 06:34:40;;;;;;;6.90;3.90;;;;;;;19.99;79.77;100993.50;5020089;28;20037;-80
2021/09/10 06:37:05;;;;;;;4.88;3.70;;;;;;;20.01;80.22;100996.72;5021493;28;20029;-82
2021/09/10 06:39:31;;;;;;;7.03;3.85;;;;;;;20.09;78.52;101001.72;5021712;28;20037;-83
2021/09/10 06:41:57;;;;;;;5.68;3.42;;;;;;;20.18;77.98;100999.63;5018265;28;20044;-81
2021/09/10 06:44:23;;;;;;;14.23;3.72;;;;;;;20.17;78.27;101005.91;5012709;28;20483;-80
2021/09/10 06:46:49;;;;;;;7.43;3.70;;;;;;;20.16;77.71;101005.09;5012319;28;20087;-79
2021/09/10 06:49:14;;;;;;;9.73;3.40;;;;;;;20.15;77.21;101003.47;5015159;28;20117;-82
2021/09/10 06:51:40;;;;;;;5.30;3.20;;;;;;;20.13;77.79;101007.38;5016609;28;20037;-82
2021/09/10 06:54:05;;;;;;;8.07;3.35;;;;;;;20.27;77.87;101006.25;5021118;28;20045;-82
2021/09/10 06:56:31;;;;;;;7.13;2.97;;;;;;;20.25;77.72;101016.19;5001178;28;20040;-80
2021/09/10 06:58:56;;;;;;;7.22;3.42;;;;;;;20.27;77.58;101008.88;5006289;28;20114;-82
2021/09/10 07:01:22;;;;;;;7.65;3.10;;;;;;;20.26;77.60;101017.00;5013794;28;20029;-82
2021/09/10 07:03:47;;;;;;;4.22;3.00;;;;;;;20.33;76.80;101005.38;5015740;28;20042;-77
2021/09/10 07:06:13;;;;;;;4.15;2.42;;;;;;;20.35;76.39;101013.88;5013926;28;20346;-81
2021/09/10 07:08:38;;;;;;;6.90;3.22;;;;;;;20.33;76.61;101009.84;5032170;28;20048;-78
2021/09/10 07:11:04;;;;;;;5.93;4.03;;;;;;;20.32;76.56;101016.13;5017848;28;20017;-79
2021/09/10 07:13:30;;;;;;;8.40;3.25;;;;;;;20.28;76.14;101022.84;5024502;28;20098;-82
2021/09/10 07:15:56;;;;;;;8.88;2.95;;;;;;;20.27;76.29;101016.78;5006304;28;20394;-81
2021/09/10 07:18:21;;;;;;;6.03;3.20;;;;;;;20.20;76.89;101014.19;5021962;28;20392;-81
2021/09/10 07:20:47;;;;;;;4.35;3.40;;;;;;;20.18;77.05;101021.50;5013817;28;20040;-79
2021/09/10 07:23:13;;;;;;;5.30;2.90;;;;;;;20.17;77.38;101019.06;5014805;28;20108;-82
2021/09/10 07:25:38;;;;;;;6.95;2.90;;;;;;;20.17;77.35;101021.69;5001496;28;20037;-83
2021/09/10 07:28:04;;;;;;;6.93;3.03;;;;;;;20.21;76.99;101021.06;5023611;28;20037;-82
2021/09/10 07:30:30;;;;;;;7.53;3.55;;;;;;;20.21;78.04;101023.72;5009625;28;20041;-82
2021/09/10 07:32:56;;;;;;;4.47;3.05;;;;;;;20.17;78.19;101017.25;5017616;28;20103;-82
2021/09/10 07:35:22;;;;;;;8.98;3.22;;;;;;;20.21;78.75;101025.50;4999189;28;20506;-80
2021/09/10 07:37:48;;;;;;;6.85;3.13;;;;;;;20.25;78.20;101025.88;5007632;28;20028;-80
2021/09/10 07:40:15;;;;;;;3.80;2.80;;;;;;;20.25;78.34;101025.88;5013158;28;20057;-80
2021/09/10 07:42:41;;;;;;;4.97;3.63;;;;;;;20.23;78.32;101031.41;5026064;28;20033;-81
2021/09/10 07:45:07;;;;;;;7.50;3.40;;;;;;;20.21;78.52;101031.59;5020185;28;20139;-81
2021/09/10 07:47:33;;;;;;;7.68;3.22;;;;;;;20.23;78.67;101031.41;5010425;28;20039;-81
2021/09/10 07:49:58;;;;;;;5.70;3.33;;;;;;;20.30;78.21;101032.13;5002335;28;20436;-82
2021/09/10 07:52:24;;;;;;;6.30;3.30;;;;;;;20.38;78.24;101033.69;5014963;28;20430;-79
2021/09/10 07:54:49;;;;;;;8.35;3.72;;;;;;;20.47;77.71;101034.22;5021898;28;20036;-80
2021/09/10 07:57:15;;;;;;;5.75;3.17;;;;;;;20.47;77.38;101036.88;5008263;28;20033;-81
2021/09/10 07:59:40;;;;;;;8.90;3.70;;;;;;;20.52;77.78;101042.28;5019995;28;20029;-80
2021/09/10 08:02:06;;;;;;;7.18;3.22;;;;;;;20.60;77.18;101044.69;5019243;28;20092;-82
2021/09/10 08:04:32;;;;;;;6.20;3.10;;;;;;;20.64;77.22;101045.84;5017385;28;20033;-81
2021/09/10 08:06:58;;;;;;;5.82;3.28;;;;;;;20.76;76.85;101048.59;5043923;28;20033;-81
2021/09/10 08:09:23;;;;;;;6.22;3.13;;;;;;;20.83;77.07;101051.16;5000259;28;20395;-81
2021/09/10 08:11:49;;;;;;;6.88;3.42;;;;;;;20.93;75.53;101049.63;5013226;28;20094;-80
2021/09/10 08:14:14;;;;;;;6.75;3.40;;;;;;;21.06;75.30;101047.88;5027086;28;20029;-82
2021/09/10 08:16:40;;;;;;;5.97;3.00;;;;;;;21.22;74.60;101036.75;5030442;28;20032;-81
2021/09/10 08:19:06;;;;;;;10.82;4.10;;;;;;;21.47;74.29;101044.56;5014362;28;20021;-80
2021/09/10 08:21:31;;;;;;;7.00;3.15;;;;;;;21.77;71.95;101043.78;5027112;28;20028;-82
2021/09/10 08:23:57;;;;;;;7.40;3.38;;;;;;;21.82;72.22;101045.75;5020531;28;20056;-81
2021/09/10 08:26:22;;;;;;;5.63;2.95;;;;;;;21.79;71.45;101041.72;5034208;28;20044;-81
2021/09/10 08:28:48;;;;;;;3.58;2.70;;;;;;;21.88;71.60;101047.50;5006893;28;20018;-84
2021/09/10 08:31:14;;;;;;;4.35;2.40;;;;;;;21.97;71.28;101049.59;5003721;28;21043;-79
2021/09/10 08:33:39;;;;;;;8.05;2.72;;;;;;;21.96;70.55;101053.28;5037165;28;20039;-78
2021/09/10 08:36:05;;;;;;;5.90;2.25;;;;;;;22.02;70.90;101048.91;5009428;28;20250;-80
2021/09/10 08:38:31;;;;;;;6.03;2.22;;;;;;;22.15;70.01;101051.34;5005575;28;20039;-78
2021/09/10 08:40:59;;;;;;;5.53;2.25;;;;;;;22.30;71.29;101055.41;5032241;28;20033;-79
2021/09/10 08:43:26;;;;;;;4.60;2.00;;;;;;;22.44;69.44;101056.03;5009371;28;20079;-78
2021/09/10 08:45:56;;;;;;;5.72;2.10;;;;;;;22.49;68.66;101058.75;5017551;28;20072;-79
2021/09/10 08:48:24;;;;;;;4.63;2.20;;;;;;;22.48;68.31;101057.97;5010543;28;20025;-80
2021/09/10 08:50:49;;;;;;;2.63;1.80;;;;;;;22.38;69.19;101062.19;5020615;28;20556;-80
2021/09/10 08:53:15;;;;;;;3.38;2.10;;;;;;;22.35;69.85;101072.19;5013715;28;20037;-80
2021/09/10 08:55:41;;;;;;;2.10;1.63;;;;;;;22.57;69.26;101074.28;5001207;28;20018;-80
2021/09/10 08:58:07;;;;;;;7.03;1.88;;;;;;;22.69;68.01;101071.63;5013617;28;20125;-80
2021/09/10 09:00:34;;;;;;;3.92;2.05;;;;;;;22.67;68.06;101071.06;5003447;28;20120;-81
2021/09/10 09:03:03;;;;;;;8.27;2.10;;;;;;;22.67;68.26;101071.06;5019931;28;20037;-80
2021/09/10 09:05:30;;;;;;;2.67;1.95;;;;;;;22.75;68.23;101070.72;5014512;28;20029;-79
2021/09/10 09:08:19;;;;;;;3.55;2.28;;;;;;;22.76;67.38;101071.53;5003008;28;20065;-77
2021/09/10 09:10:59;;;;;;;6.88;1.95;;;;;;;22.81;67.80;101072.47;5021013;28;20033;-82
2021/09/10 09:13:29;;;;;;;5.53;2.42;;;;;;;22.76;66.93;101074.19;5024853;28;20041;-78
2021/09/10 09:16:29;;;;;;;7.97;3.28;;;;;;;22.83;67.73;101078.31;5038399;28;20505;-80
2021/09/10 09:18:58;;;;;;;3.15;2.13;;;;;;;22.63;67.27;101069.94;5037288;28;20029;-80
2021/09/10 09:21:44;;;;;;;4.78;2.65;;;;;;;22.78;67.43;101080.03;5040041;28;20025;-81
2021/09/10 09:24:20;;;;;;;5.57;2.30;;;;;;;22.83;67.07;101078.31;5014555;28;20140;-80
2021/09/10 09:26:51;;;;;;;6.05;2.47;;;;;;;22.79;66.82;101077.13;5021427;28;20043;-78
2021/09/10 09:29:19;;;;;;;6.38;2.83;;;;;;;22.71;67.61;101080.94;5033748;28;20035;-78
2021/09/10 09:32:01;;;;;;;4.53;2.50;;;;;;;22.66;67.32;101085.31;5026458;28;20110;-80
2021/09/10 09:34:44;;;;;;;5.30;2.55;;;;;;;22.60;67.76;101087.03;5013032;28;20037;-80
2021/09/10 09:37:10;;;;;;;7.72;2.72;;;;;;;22.53;68.02;101089.00;5007550;28;20033;-80
2021/09/10 09:40:09;;;;;;;3.20;2.40;;;;;;;22.52;68.99;101092.66;5006733;28;20036;-79
2021/09/10 09:42:35;;;;;;;5.57;2.63;;;;;;;22.62;68.24;101089.44;5000410;28;20092;-81
2021/09/10 09:45:16;;;;;;;8.20;2.63;;;;;;;22.45;69.39;101086.66;5015648;28;20206;-78
2021/09/10 09:47:43;;;;;;;9.05;2.53;;;;;;;22.43;68.41;101089.53;5029363;28;20476;-79
2021/09/10 09:50:10;;;;;;;3.67;2.47;;;;;;;22.25;69.85;101103.66;5006101;28;20124;-78
2021/09/10 09:52:35;;;;;;;6.70;2.42;;;;;;;;;;5003771;28;20080;-80
2021/09/10 09:55:03;;;;;;;3.65;2.72;;;;;;;22.03;73.16;101110.44;5001583;28;20369;-80
2021/09/10 09:57:29;;;;;;;8.27;3.40;;;;;;;21.72;75.47;101107.78;5011252;28;20026;-79
2021/09/10 09:59:56;;;;;;;6.57;2.80;;;;;;;21.72;76.46;101102.53;5011306;28;20199;-78
2021/09/10 10:02:22;;;;;;;5.55;3.15;;;;;;;21.66;77.76;101111.34;5003367;28;20025;-79
2021/09/10 10:04:48;;;;;;;4.35;2.75;;;;;;;21.63;78.34;101110.97;5015023;28;20380;-79
2021/09/10 10:07:16;;;;;;;6.47;2.75;;;;;;;21.65;78.06;101122.09;5022593;28;20034;-79
2021/09/10 10:09:43;;;;;;;3.95;2.60;;;;;;;21.52;79.33;101123.84;5027318;28;20033;-78
2021/09/10 10:12:11;;;;;;;4.82;2.90;;;;;;;21.55;79.41;101123.44;5021583;28;20513;-80
2021/09/10 10:14:39;;;;;;;6.40;2.83;;;;;;;21.61;79.37;101120.94;5004196;28;20037;-80
2021/09/10 10:17:25;;;;;;;7.75;3.20;;;;;;;21.57;79.75;101118.72;5011309;28;20029;-79
2021/09/10 10:19:51;;;;;;;4.97;2.72;;;;;;;21.52;79.21;101115.16;5017897;28;20542;-79
2021/09/10 10:22:32;;;;;;;5.50;2.55;;;;;;;21.76;78.98;101122.16;5003164;28;20029;-79
2021/09/10 10:24:59;;;;;;;5.75;2.63;;;;;;;22.21;78.87;101109.56;5023706;28;20099;-79
2021/09/10 10:27:34;;;;;;;5.70;2.50;;;;;;;22.46;77.14;101114.72;5014517;28;20413;-78
2021/09/10 10:30:06;;;;;;;5.60;2.00;;;;;;;22.38;77.24;101115.84;4998654;28;20033;-78
2021/09/10 10:32:39;;;;;;;3.07;2.27;;;;;;;22.32;76.96;101114.91;4999813;28;20029;-78
2021/09/10 10:35:12;;;;;;;3.95;2.28;;;;;;;22.12;77.68;101109.88;5015609;28;20037;-79
2021/09/10 10:37:38;;;;;;;;;;;;;;;22.15;77.76;101121.81;5004303;28;20445;-80
2021/09/10 10:40:42;;;;;;;8.68;3.00;;;;;;;22.11;78.47;101116.22;5005489;28;19963;-79
2021/09/10 10:43:25;;;;;;;5.28;2.47;;;;;;;22.00;78.98;101113.50;5002692;28;20598;-80
2021/09/10 10:46:04;;;;;;;4.78;2.55;;;;;;;22.08;76.50;101113.22;5020658;28;20030;-79
2021/09/10 10:48:30;;;;;;;7.63;2.10;;;;;;;22.06;77.08;101112.63;5008777;28;20038;-79
2021/09/10 10:51:16;;;;;;;4.97;1.80;;;;;;;22.23;77.33;101100.41;5008195;28;20594;-79
2021/09/10 10:53:44;;;;;;;4.60;1.77;;;;;;;22.29;76.14;101104.78;5031460;28;20092;-80
2021/09/10 10:56:25;;;;;;;2.33;1.60;;;;;;;22.38;75.39;101104.47;5006777;28;20042;-81
2021/09/10 10:59:16;;;;;;;2.80;1.60;;;;;;;22.53;75.19;101105.66;5007058;28;20044;-81
2021/09/10 11:02:20;;;;;;;2.83;1.25;;;;;;;22.58;74.02;101097.03;5010408;28;20044;-80
2021/09/10 11:04:49;;;;;;;4.55;1.50;;;;;;;22.80;73.20;101091.19;5001531;28;20124;-79
2021/09/10 11:07:20;;;;;;;1.50;1.20;;;;;;;22.86;73.80;101087.59;5004394;28;20029;-82
2021/09/10 11:10:07;;;;;;;2.80;1.42;;;;;;;22.92;73.62;101090.16;5022726;28;20091;-79
2021/09/10 11:12:37;;;;;;;4.03;1.55;;;;;;;22.98;73.80;101082.31;5017339;28;20044;-80
2021/09/10 11:15:18;;;;;;;4.13;1.38;;;;;;;22.88;72.68;101067.84;4999532;28;20045;-81
2021/09/10 11:17:51;;;;;;;3.78;1.15;;;;;;;23.02;72.04;101068.41;4990542;28;20033;-79
2021/09/10 11:20:24;;;;;;;1.90;1.38;;;;;;;23.08;71.78;101061.41;5031310;28;20029;-80
2021/09/10 11:22:49;;;;;;;;;;;;;;;23.03;71.45;101066.56;4994663;28;20042;-79
2021/09/10 11:25:15;;;;;;;2.45;1.10;;;;;;;23.05;71.42;101059.22;5012751;28;20126;-79